National Weather Service Raw Text Product

Displaying AFOS PIL: TAFDSM Received: 2018-01-03 01:01 UTC


406 
FTUS43 KDMX 030101 AAA
TAFDSM
TAF AMD
KDSM 030101Z 0301/0324 22015G21KT P6SM FEW070 SCT120 BKN200
      TEMPO 0302/0304 1SM -SN SCT007 BKN015
     FM030400 26012KT P6SM SCT060 OVC100
     FM030800 33016G23KT P6SM BKN030
     FM031200 32017G24KT P6SM SCT040=